createdAt,value
2018-10-12T00:03:07.261Z,19.17
2018-10-12T00:08:11.645Z,21.00
2018-10-12T00:13:16.031Z,17.87
2018-10-12T00:18:20.190Z,17.47
2018-10-12T00:23:24.389Z,18.40
2018-10-12T00:28:28.593Z,17.67
2018-10-12T00:33:32.753Z,20.07
2018-10-12T00:38:36.980Z,18.50
2018-10-12T00:43:41.221Z,17.33
2018-10-12T00:48:45.425Z,17.90
2018-10-12T00:53:49.601Z,17.83
2018-10-12T00:58:53.722Z,18.70
2018-10-12T01:03:57.898Z,19.17
2018-10-12T01:09:02.157Z,19.13
2018-10-12T01:14:06.491Z,18.00
2018-10-12T01:19:10.777Z,18.37
2018-10-12T01:24:15.095Z,19.23
2018-10-12T01:29:19.499Z,17.67
2018-10-12T01:34:23.659Z,19.63
2018-10-12T01:39:27.933Z,20.30
2018-10-12T01:44:32.209Z,18.77
2018-10-12T01:49:36.587Z,19.07
2018-10-12T01:54:40.950Z,19.47
2018-10-12T01:59:45.546Z,21.00
2018-10-12T02:04:50.097Z,18.13
2018-10-12T02:09:54.387Z,19.20
2018-10-12T02:14:58.543Z,20.77
2018-10-12T02:20:02.751Z,21.07
2018-10-12T02:25:07.293Z,19.57
2018-10-12T02:30:11.545Z,19.87
2018-10-12T02:35:16.453Z,22.70
2018-10-12T02:40:20.645Z,19.60
2018-10-12T02:45:24.843Z,18.73
2018-10-12T02:50:29.422Z,19.47
2018-10-12T02:55:33.487Z,18.57
2018-10-12T03:00:37.656Z,19.07
2018-10-12T03:05:42.006Z,17.47
2018-10-12T03:10:49.514Z,20.90
2018-10-12T03:15:54.291Z,18.50
2018-10-12T03:21:03.675Z,17.33
2018-10-12T03:26:07.902Z,17.20
2018-10-12T03:31:12.129Z,19.20
2018-10-12T03:36:16.443Z,18.40
2018-10-12T03:41:20.900Z,21.70
2018-10-12T03:46:25.064Z,17.53
2018-10-12T03:51:29.293Z,18.03
2018-10-12T03:56:33.419Z,18.67
2018-10-12T04:01:37.626Z,19.40
2018-10-12T04:06:41.882Z,18.13
2018-10-12T04:11:46.045Z,19.20
2018-10-12T04:16:50.258Z,16.93
2018-10-12T04:21:54.436Z,18.30
2018-10-12T04:26:58.691Z,17.47
2018-10-12T04:32:03.394Z,17.63
2018-10-12T04:37:08.025Z,19.17
2018-10-12T04:42:13.061Z,18.10
2018-10-12T04:47:17.542Z,18.67
2018-10-12T04:52:22.624Z,17.20
2018-10-12T04:57:27.071Z,19.13
2018-10-12T05:02:31.153Z,19.77
2018-10-12T05:07:35.410Z,19.57
2018-10-12T05:12:39.541Z,17.40
2018-10-12T05:17:43.783Z,17.97
2018-10-12T05:22:47.979Z,17.90
2018-10-12T05:27:52.119Z,17.60
2018-10-12T05:32:56.343Z,21.13
2018-10-12T05:38:00.775Z,17.77
2018-10-12T05:43:04.888Z,18.13
2018-10-12T05:48:25.377Z,17.00
2018-10-12T05:53:30.305Z,19.47
2018-10-12T05:58:34.648Z,17.37
2018-10-12T06:03:39.276Z,17.80
2018-10-12T06:08:43.535Z,20.00
2018-10-12T06:13:47.767Z,17.43
2018-10-12T06:18:52.027Z,19.10
2018-10-12T06:23:56.281Z,18.05
2018-10-12T06:29:00.687Z,18.55
2018-10-12T06:34:04.847Z,22.73
2018-10-12T06:39:09.012Z,18.05
2018-10-12T06:44:13.269Z,17.67
2018-10-12T06:49:17.489Z,20.50
2018-10-12T06:54:21.751Z,19.42
2018-10-12T06:59:26.183Z,20.67
2018-10-12T07:04:30.323Z,20.03
2018-10-12T07:09:34.655Z,18.43
2018-10-12T07:14:39.097Z,17.77
2018-10-12T07:19:43.559Z,18.10
2018-10-12T07:24:47.802Z,17.17
2018-10-12T07:29:52.514Z,17.60
2018-10-12T07:34:56.970Z,17.50
2018-10-12T07:40:07.751Z,18.60
2018-10-12T07:45:12.152Z,17.17
2018-10-12T07:50:16.605Z,16.82
2018-10-12T07:55:20.974Z,18.73
2018-10-12T08:00:25.251Z,17.02
2018-10-12T08:05:29.371Z,18.23
2018-10-12T08:10:33.609Z,18.40
2018-10-12T08:15:38.689Z,17.17
2018-10-12T08:20:44.436Z,14.90
2018-10-12T08:25:48.940Z,16.35
2018-10-12T08:30:53.183Z,15.13
2018-10-12T08:35:57.793Z,15.70
2018-10-12T08:41:01.935Z,14.10
2018-10-12T08:46:06.219Z,16.40
2018-10-12T08:51:10.459Z,15.00
2018-10-12T08:56:14.743Z,16.10
2018-10-12T09:01:19.006Z,15.07
2018-10-12T09:06:23.314Z,13.57
2018-10-12T09:11:27.527Z,13.93
2018-10-12T09:16:32.941Z,15.53
2018-10-12T09:21:37.718Z,15.48
2018-10-12T09:26:42.214Z,14.07
2018-10-12T09:31:46.854Z,16.52
2018-10-12T09:36:50.984Z,17.83
2018-10-12T09:41:55.582Z,16.42
2018-10-12T09:47:00.410Z,12.30
2018-10-12T09:52:05.078Z,15.15
2018-10-12T09:57:14.422Z,15.00
2018-10-12T10:02:23.437Z,15.13
2018-10-12T10:07:27.975Z,15.50
2018-10-12T10:12:32.380Z,13.50
2018-10-12T10:17:36.924Z,17.98
2018-10-12T10:22:41.708Z,17.73
2018-10-12T10:27:46.684Z,13.97
2018-10-12T10:32:51.538Z,15.15
2018-10-12T10:37:56.077Z,11.00
2018-10-12T10:43:00.312Z,12.20
2018-10-12T10:48:04.933Z,11.07
2018-10-12T10:53:09.396Z,9.33
2018-10-12T10:58:13.625Z,10.95
2018-10-12T11:03:18.309Z,10.97
2018-10-12T11:08:23.050Z,14.03
2018-10-12T11:13:27.514Z,12.37
2018-10-12T11:18:31.940Z,12.10
2018-10-12T11:23:36.800Z,9.73
2018-10-12T11:28:41.434Z,13.68
2018-10-12T11:33:47.892Z,10.58
2018-10-12T11:38:52.078Z,9.93
2018-10-12T11:43:57.146Z,9.75
2018-10-12T11:49:06.480Z,10.40
2018-10-12T11:54:10.824Z,12.15
2018-10-12T11:59:15.006Z,12.23
2018-10-12T12:04:19.951Z,8.15
2018-10-12T12:09:24.416Z,8.45
2018-10-12T12:14:29.193Z,8.90
2018-10-12T12:19:33.424Z,8.37
2018-10-12T12:24:37.890Z,7.53
2018-10-12T12:29:42.516Z,7.40
2018-10-12T12:34:47.718Z,10.50
2018-10-12T12:39:52.160Z,8.78
2018-10-12T12:44:56.394Z,8.10
2018-10-12T12:50:01.078Z,9.85
2018-10-12T12:55:05.429Z,16.27
2018-10-12T13:00:09.803Z,6.80
2018-10-12T13:05:14.053Z,7.78
2018-10-12T13:10:18.508Z,9.05
2018-10-12T13:15:23.308Z,7.40
2018-10-12T13:20:27.481Z,6.53
2018-10-12T13:25:32.444Z,7.85
2018-10-12T13:30:37.177Z,7.73
2018-10-12T13:35:42.405Z,6.60
2018-10-12T13:40:47.048Z,8.85
2018-10-12T13:45:51.429Z,8.33
2018-10-12T13:50:55.905Z,7.62
2018-10-12T13:56:00.690Z,6.37
2018-10-12T14:01:05.138Z,8.90
2018-10-12T14:06:09.668Z,7.72
2018-10-12T14:11:13.820Z,7.03
2018-10-12T14:16:18.202Z,5.62
2018-10-12T14:21:22.652Z,8.18
2018-10-12T14:26:27.044Z,8.23
2018-10-12T14:31:31.873Z,6.35
2018-10-12T14:36:36.064Z,8.68
2018-10-12T14:41:40.439Z,8.03
2018-10-12T14:46:45.352Z,7.05
2018-10-12T14:51:49.602Z,7.10
2018-10-12T14:56:53.792Z,5.42
2018-10-12T15:01:58.381Z,6.83
2018-10-12T15:07:02.926Z,5.58
2018-10-12T15:12:07.360Z,5.22
2018-10-12T15:17:11.704Z,4.90
2018-10-12T15:22:16.353Z,4.83
2018-10-12T15:27:20.496Z,5.25
2018-10-12T15:32:24.908Z,6.15
2018-10-12T15:37:29.362Z,5.58
2018-10-12T15:42:33.899Z,6.22
2018-10-12T15:47:38.223Z,9.18
2018-10-12T15:52:42.574Z,7.22
2018-10-12T15:57:46.980Z,6.92
2018-10-12T16:28:09.042Z,6.17
2018-10-12T16:38:17.674Z,7.33
2018-10-12T16:43:22.142Z,7.55
2018-10-12T16:48:26.578Z,10.30
2018-10-12T16:53:31.040Z,7.70
2018-10-12T17:03:39.116Z,10.15
2018-10-12T17:08:48.596Z,9.93
2018-10-12T17:13:53.336Z,12.75
2018-10-12T17:18:57.805Z,16.55
2018-10-12T17:24:02.276Z,14.13
2018-10-12T17:29:06.683Z,11.00
2018-10-12T17:34:10.998Z,18.90
2018-10-12T17:39:16.587Z,17.77
2018-10-12T17:44:20.899Z,15.23
2018-10-12T17:49:34.718Z,16.87
2018-10-12T17:54:39.268Z,18.17
2018-10-12T17:59:44.111Z,14.60
2018-10-12T18:04:48.976Z,16.30
2018-10-12T18:09:53.644Z,14.10
2018-10-12T18:14:57.878Z,14.50
2018-10-12T18:20:02.800Z,16.17
2018-10-12T18:25:08.924Z,17.10
2018-10-12T18:30:13.557Z,16.27
2018-10-12T18:35:18.213Z,15.68
2018-10-12T18:40:22.505Z,17.20
2018-10-12T18:45:27.366Z,16.70
2018-10-12T18:50:32.477Z,14.37
2018-10-12T18:55:37.201Z,12.10
2018-10-12T19:00:41.897Z,14.43
2018-10-12T19:05:47.373Z,15.83
2018-10-12T19:10:51.835Z,13.07
2018-10-12T19:15:56.148Z,15.85
2018-10-12T19:21:02.287Z,15.67
2018-10-12T19:26:10.989Z,14.23
2018-10-12T19:31:17.187Z,10.43
2018-10-12T19:36:25.674Z,12.25
2018-10-12T19:41:31.490Z,11.10
2018-10-12T19:46:36.671Z,11.33
2018-10-12T19:51:41.507Z,8.55
2018-10-12T19:56:45.769Z,9.60
2018-10-12T20:01:50.789Z,11.00
2018-10-12T20:06:55.311Z,8.48
2018-10-12T20:11:59.642Z,10.43
2018-10-12T20:17:04.078Z,9.45
2018-10-12T20:22:10.768Z,9.90
2018-10-12T20:27:15.604Z,10.35
2018-10-12T20:32:20.510Z,10.20
2018-10-12T20:37:26.232Z,9.38
2018-10-12T20:42:32.513Z,8.83
2018-10-12T20:47:37.308Z,10.05
2018-10-12T20:52:41.663Z,9.75
2018-10-12T20:57:57.060Z,12.80
2018-10-12T21:03:02.944Z,10.32
2018-10-12T21:08:14.391Z,10.40
2018-10-12T21:13:19.685Z,10.72
2018-10-12T21:18:24.789Z,10.15
2018-10-12T21:23:29.866Z,10.48
2018-10-12T21:28:34.525Z,10.60
2018-10-12T21:33:40.293Z,10.28
2018-10-12T21:38:55.965Z,10.30
2018-10-12T21:44:00.731Z,12.33
2018-10-12T21:49:05.159Z,10.70
2018-10-12T21:54:09.711Z,11.35
2018-10-12T21:59:13.841Z,10.65
2018-10-12T22:04:18.788Z,12.45
2018-10-12T22:09:22.989Z,10.85
2018-10-12T22:14:27.263Z,12.60
2018-10-12T22:19:31.789Z,11.85
2018-10-12T22:24:36.020Z,11.63
2018-10-12T22:29:40.630Z,12.13
2018-10-12T22:34:45.008Z,13.72
2018-10-12T22:39:49.661Z,11.30
2018-10-12T22:44:54.031Z,12.37
2018-10-12T22:49:58.330Z,11.28
2018-10-12T22:55:02.617Z,13.77
2018-10-12T23:00:11.861Z,12.40
2018-10-12T23:05:16.515Z,13.27
2018-10-12T23:10:21.011Z,11.30
2018-10-12T23:15:25.449Z,11.53
2018-10-12T23:20:30.133Z,12.20
2018-10-12T23:25:34.676Z,11.88
2018-10-12T23:30:40.408Z,12.30
2018-10-12T23:35:45.800Z,16.33
2018-10-12T23:40:52.865Z,12.85
2018-10-12T23:45:57.910Z,13.47
2018-10-12T23:51:07.545Z,12.70
2018-10-12T23:56:13.031Z,13.60
